Time;durP1;ratioP1;P1;durP2;ratioP2;P2;SDS_P1;SDS_P2;PMS_P1;PMS_P2;Temp;Humidity;BMP_temperature;BMP_pressure;BME280_temperature;BME280_humidity;BME280_pressure;Samples;Min_cycle;Max_cycle;Signal;HPM_P1;HPM_P2
2023/08/16 00:02:03;;;;;;;10.07;3.45;;;19.80;99.90;;;;;;5022468;28;20029;-56
2023/08/16 00:04:28;;;;;;;7.65;3.53;;;19.80;99.90;;;;;;5011604;28;20421;-56
2023/08/16 00:06:54;;;;;;;9.13;3.35;;;19.80;99.90;;;;;;5004574;28;20030;-57
2023/08/16 00:09:20;;;;;;;6.40;3.30;;;19.70;99.90;;;;;;5002263;28;20445;-57
2023/08/16 00:11:46;;;;;;;7.90;3.30;;;19.80;99.90;;;;;;5000874;28;20045;-57
2023/08/16 00:14:13;;;;;;;8.30;3.60;;;19.80;99.90;;;;;;5020807;28;20116;-56
2023/08/16 00:16:38;;;;;;;5.63;3.08;;;19.70;99.90;;;;;;5026604;28;20038;-57
2023/08/16 00:19:04;;;;;;;4.60;3.20;;;19.60;99.90;;;;;;5006893;28;20551;-57
2023/08/16 00:21:30;;;;;;;7.28;3.30;;;19.60;99.90;;;;;;5005111;28;20382;-56
2023/08/16 00:23:55;;;;;;;7.40;3.53;;;19.70;99.90;;;;;;5006075;28;20034;-56
2023/08/16 00:26:21;;;;;;;6.22;3.65;;;19.60;99.90;;;;;;5001353;28;20470;-56
2023/08/16 00:28:48;;;;;;;9.23;3.75;;;19.70;99.90;;;;;;5005219;28;20107;-56
2023/08/16 00:31:14;;;;;;;8.40;3.30;;;19.80;99.90;;;;;;5001871;28;20274;-57
2023/08/16 00:33:40;;;;;;;7.20;3.17;;;19.70;99.90;;;;;;5003253;28;20678;-57
2023/08/16 00:36:07;;;;;;;9.02;3.17;;;19.60;99.90;;;;;;4999694;28;20113;-56
2023/08/16 00:38:33;;;;;;;7.57;3.40;;;19.80;99.90;;;;;;5012711;28;20541;-57
2023/08/16 00:40:58;;;;;;;9.50;3.40;;;19.90;99.90;;;;;;5009310;28;20049;-55
2023/08/16 00:43:24;;;;;;;7.65;3.83;;;19.90;99.90;;;;;;5004717;28;20125;-55
2023/08/16 00:45:50;;;;;;;5.50;3.67;;;19.80;99.90;;;;;;5004789;28;20054;-56
2023/08/16 00:48:17;;;;;;;6.57;3.22;;;19.60;99.90;;;;;;5005485;28;20033;-57
2023/08/16 00:50:43;;;;;;;8.07;3.70;;;19.50;99.90;;;;;;5007362;28;20084;-56
2023/08/16 00:53:09;;;;;;;7.20;3.83;;;19.50;99.90;;;;;;5005512;28;20724;-56
2023/08/16 00:55:35;;;;;;;9.98;4.47;;;19.40;99.90;;;;;;5007481;28;20036;-57
2023/08/16 00:58:01;;;;;;;7.38;3.92;;;19.50;99.90;;;;;;5007448;28;20034;-57
2023/08/16 01:00:28;;;;;;;10.23;3.90;;;19.60;99.90;;;;;;5006076;28;20038;-56
2023/08/16 01:02:53;;;;;;;8.30;3.85;;;19.50;99.90;;;;;;5007761;28;20132;-55
2023/08/16 01:05:20;;;;;;;10.13;4.10;;;19.40;99.90;;;;;;5010839;28;20120;-54
2023/08/16 01:07:46;;;;;;;6.90;3.80;;;19.40;99.90;;;;;;5003490;28;20037;-57
2023/08/16 01:10:12;;;;;;;8.23;4.00;;;19.50;99.90;;;;;;5004489;28;20042;-54
2023/08/16 01:12:47;;;;;;;8.98;3.88;;;19.40;99.90;;;;;;5001636;28;20026;-55
2023/08/16 01:15:16;;;;;;;7.15;3.47;;;19.30;99.90;;;;;;5001623;28;20438;-56
2023/08/16 01:17:43;;;;;;;7.90;3.38;;;19.30;99.90;;;;;;5002260;28;20038;-56
2023/08/16 01:20:11;;;;;;;9.95;3.72;;;19.40;99.90;;;;;;5009652;28;20432;-56
2023/08/16 01:22:47;;;;;;;10.60;4.30;;;19.40;99.90;;;;;;5002885;28;20034;-57
2023/08/16 01:25:25;;;;;;;8.48;3.97;;;19.50;99.90;;;;;;5004044;28;20026;-57
2023/08/16 01:27:52;;;;;;;7.18;3.80;;;19.40;99.90;;;;;;5003364;28;20057;-56
2023/08/16 01:30:20;;;;;;;8.57;4.32;;;19.40;99.90;;;;;;5004081;28;20100;-57
2023/08/16 01:32:47;;;;;;;6.82;3.88;;;19.50;99.90;;;;;;5003804;28;20038;-56
2023/08/16 01:35:14;;;;;;;10.00;4.10;;;19.30;99.90;;;;;;5000282;28;20110;-56
2023/08/16 01:37:40;;;;;;;7.40;4.18;;;19.30;99.90;;;;;;5003243;28;20040;-55
2023/08/16 01:40:08;;;;;;;6.07;4.07;;;19.20;99.90;;;;;;5004175;28;20108;-55
2023/08/16 01:42:39;;;;;;;9.80;4.22;;;19.10;99.90;;;;;;5011207;28;20038;-56
2023/08/16 01:45:07;;;;;;;8.18;4.53;;;19.20;99.90;;;;;;5002434;28;20030;-55
2023/08/16 01:47:33;;;;;;;8.65;4.20;;;19.10;99.90;;;;;;5003589;28;20138;-55
2023/08/16 01:49:59;;;;;;;9.80;4.55;;;19.30;99.90;;;;;;5002575;28;20532;-57
2023/08/16 01:52:28;;;;;;;8.35;4.50;;;19.30;99.90;;;;;;5019572;28;20038;-55
2023/08/16 01:54:54;;;;;;;7.18;4.22;;;19.40;99.90;;;;;;5003705;28;20611;-56
2023/08/16 01:57:20;;;;;;;9.13;4.30;;;19.40;99.90;;;;;;5002112;28;20034;-56
2023/08/16 01:59:46;;;;;;;8.77;4.60;;;19.30;99.90;;;;;;5003903;28;20072;-56
2023/08/16 02:02:11;;;;;;;9.55;4.47;;;19.20;99.90;;;;;;5002782;28;20187;-56
2023/08/16 02:04:37;;;;;;;9.88;5.45;;;19.20;99.90;;;;;;5003058;28;20398;-56
2023/08/16 02:07:03;;;;;;;12.02;5.65;;;19.30;99.90;;;;;;4994977;28;20034;-57
2023/08/16 02:09:28;;;;;;;8.07;4.65;;;19.30;99.90;;;;;;5002523;28;20034;-57
2023/08/16 02:11:54;;;;;;;9.32;5.07;;;19.30;99.90;;;;;;5004075;28;20651;-57
2023/08/16 02:14:19;;;;;;;10.48;5.22;;;19.40;99.90;;;;;;4996970;28;20480;-56
2023/08/16 02:16:45;;;;;;;12.18;5.57;;;19.40;99.90;;;;;;5002214;28;20033;-57
2023/08/16 02:19:10;;;;;;;12.07;5.43;;;19.40;99.90;;;;;;5000840;28;20041;-57
2023/08/16 02:21:36;;;;;;;10.70;6.00;;;19.50;99.90;;;;;;5002450;28;20073;-57
2023/08/16 02:24:03;;;;;;;11.77;5.47;;;19.20;99.90;;;;;;5003339;28;20414;-56
2023/08/16 02:26:28;;;;;;;8.68;5.57;;;19.30;99.90;;;;;;5003618;28;20668;-57
2023/08/16 02:28:54;;;;;;;10.93;5.78;;;19.40;99.90;;;;;;5002238;28;20034;-55
2023/08/16 02:31:20;;;;;;;15.00;5.30;;;19.30;99.90;;;;;;5000578;28;20068;-54
2023/08/16 02:33:45;;;;;;;8.25;5.32;;;19.40;99.90;;;;;;5003559;28;20462;-56
2023/08/16 02:36:11;;;;;;;8.48;5.50;;;19.30;99.90;;;;;;5001297;28;20389;-56
2023/08/16 02:38:36;;;;;;;9.13;4.93;;;19.20;99.90;;;;;;4999374;28;20520;-56
2023/08/16 02:41:02;;;;;;;7.85;5.32;;;19.30;99.90;;;;;;5017932;28;20515;-57
2023/08/16 02:43:28;;;;;;;9.52;4.97;;;19.50;99.90;;;;;;5002386;28;20080;-57
2023/08/16 02:45:54;;;;;;;11.15;4.80;;;19.40;99.90;;;;;;5026672;28;20042;-57
2023/08/16 02:48:19;;;;;;;9.68;5.00;;;19.40;99.90;;;;;;5025927;28;20034;-57
2023/08/16 02:50:45;;;;;;;9.23;5.00;;;19.70;99.90;;;;;;5025267;28;20377;-57
2023/08/16 02:53:11;;;;;;;9.57;4.80;;;19.50;99.90;;;;;;5026054;28;20026;-56
2023/08/16 02:55:36;;;;;;;9.40;4.70;;;19.60;99.90;;;;;;5027541;28;20567;-56
2023/08/16 02:58:02;;;;;;;9.75;4.15;;;19.40;99.90;;;;;;5026380;28;20033;-56
2023/08/16 03:00:29;;;;;;;9.43;4.72;;;19.20;99.90;;;;;;5026415;28;20128;-58
2023/08/16 03:02:55;;;;;;;11.60;5.22;;;19.30;99.90;;;;;;5027827;28;20128;-57
2023/08/16 03:05:21;;;;;;;7.90;4.68;;;20.20;99.90;;;;;;5025721;28;20109;-57
2023/08/16 03:07:46;;;;;;;8.80;4.80;;;19.30;99.90;;;;;;5027074;28;20037;-57
2023/08/16 03:10:12;;;;;;;8.27;4.22;;;19.20;99.90;;;;;;5027544;28;20429;-57
2023/08/16 03:12:38;;;;;;;7.03;4.03;;;19.30;99.90;;;;;;5026335;28;20049;-56
2023/08/16 03:15:04;;;;;;;9.35;4.50;;;19.30;99.90;;;;;;5023389;28;20044;-57
2023/08/16 03:17:29;;;;;;;8.95;4.30;;;19.20;99.90;;;;;;5025460;28;20188;-56
2023/08/16 03:19:55;;;;;;;8.65;4.40;;;19.20;99.90;;;;;;5026575;28;20128;-57
2023/08/16 03:22:20;;;;;;;8.32;4.95;;;19.20;99.90;;;;;;5026047;28;20136;-56
2023/08/16 03:24:47;;;;;;;11.45;4.93;;;19.20;99.90;;;;;;5025463;28;20021;-57
2023/08/16 03:27:13;;;;;;;7.90;4.10;;;19.20;99.90;;;;;;5024151;28;20409;-58
2023/08/16 03:29:39;;;;;;;10.15;4.32;;;18.90;99.90;;;;;;5032621;28;20044;-56
2023/08/16 03:32:04;;;;;;;9.48;4.45;;;18.90;99.90;;;;;;5025281;28;20037;-55
2023/08/16 03:34:30;;;;;;;9.18;4.32;;;18.90;99.90;;;;;;5025235;28;20077;-57
2023/08/16 03:36:56;;;;;;;10.05;4.10;;;19.00;99.90;;;;;;5025926;28;20041;-56
2023/08/16 03:39:22;;;;;;;11.32;4.35;;;19.00;99.90;;;;;;5025260;28;20460;-57
2023/08/16 03:41:48;;;;;;;7.93;4.15;;;19.00;99.90;;;;;;5026545;28;20033;-56
2023/08/16 03:44:13;;;;;;;8.82;4.93;;;19.00;99.90;;;;;;5024948;28;20409;-55
2023/08/16 03:46:39;;;;;;;10.02;4.60;;;19.00;99.90;;;;;;5025338;28;20225;-57
2023/08/16 03:49:04;;;;;;;9.48;4.85;;;18.80;99.90;;;;;;5025469;28;20095;-56
2023/08/16 03:51:31;;;;;;;9.05;4.32;;;18.80;99.90;;;;;;5012475;28;20037;-56
2023/08/16 03:53:57;;;;;;;10.23;4.38;;;18.70;99.90;;;;;;5025115;28;20041;-57
2023/08/16 03:56:22;;;;;;;8.23;4.43;;;18.80;99.90;;;;;;5019519;28;20029;-56
2023/08/16 03:58:48;;;;;;;7.18;4.68;;;18.80;99.90;;;;;;5018855;28;20044;-58
2023/08/16 04:01:14;;;;;;;7.97;4.32;;;18.90;99.90;;;;;;5002756;28;20038;-56
2023/08/16 04:03:39;;;;;;;9.00;4.60;;;18.90;99.90;;;;;;5005057;28;20120;-56
2023/08/16 04:06:10;;;;;;;7.78;4.90;;;18.90;99.90;;;;;;5004613;28;20034;-58
2023/08/16 04:08:36;;;;;;;8.45;4.68;;;18.80;99.90;;;;;;5005362;28;20030;-57
2023/08/16 04:11:02;;;;;;;9.52;4.72;;;18.80;99.90;;;;;;5006615;28;20476;-57
2023/08/16 04:13:27;;;;;;;9.65;4.95;;;18.90;99.90;;;;;;5025439;28;20049;-57
2023/08/16 04:15:53;;;;;;;9.55;5.15;;;18.80;99.90;;;;;;5002606;28;20493;-56
2023/08/16 04:18:18;;;;;;;8.45;5.38;;;18.60;99.90;;;;;;5004166;28;20056;-56
2023/08/16 04:20:44;;;;;;;10.52;5.88;;;18.60;99.90;;;;;;5004167;28;20073;-56
2023/08/16 04:23:10;;;;;;;9.20;5.57;;;18.70;99.90;;;;;;5005422;28;20092;-56
2023/08/16 04:25:35;;;;;;;9.95;5.80;;;18.80;99.90;;;;;;5005765;28;20129;-57
2023/08/16 04:28:01;;;;;;;8.02;5.90;;;18.90;99.90;;;;;;5006469;28;20037;-56
2023/08/16 04:30:27;;;;;;;9.93;5.95;;;18.90;99.90;;;;;;5009342;28;20053;-56
2023/08/16 04:32:52;;;;;;;9.45;6.00;;;18.80;99.90;;;;;;5005051;28;20092;-61
2023/08/16 04:35:18;;;;;;;9.73;5.30;;;18.80;99.90;;;;;;4996682;28;20045;-56
2023/08/16 04:37:47;;;;;;;7.80;5.43;;;18.80;99.90;;;;;;4999788;28;20045;-56
2023/08/16 04:40:13;;;;;;;6.85;4.65;;;18.70;99.90;;;;;;5012577;28;20046;-56
2023/08/16 04:42:38;;;;;;;6.10;4.75;;;18.70;99.90;;;;;;5011537;28;20049;-55
2023/08/16 04:45:04;;;;;;;5.25;4.38;;;18.70;99.90;;;;;;4995064;28;20037;-56
2023/08/16 04:47:30;;;;;;;7.80;4.25;;;18.70;99.90;;;;;;4996716;28;20046;-57
2023/08/16 04:49:56;;;;;;;6.75;4.20;;;18.70;99.90;;;;;;5004820;28;20132;-56
2023/08/16 04:52:22;;;;;;;7.10;4.25;;;18.70;99.90;;;;;;5001212;28;20179;-57
2023/08/16 04:54:47;;;;;;;6.20;4.10;;;18.70;99.90;;;;;;5004096;28;20061;-57
2023/08/16 04:57:13;;;;;;;8.63;4.15;;;18.70;99.90;;;;;;4996305;28;20471;-56
2023/08/16 04:59:39;;;;;;;9.85;4.18;;;18.70;99.90;;;;;;5007219;28;20038;-56
2023/08/16 05:02:05;;;;;;;8.48;3.88;;;18.70;99.90;;;;;;5013506;28;20540;-56
2023/08/16 05:04:30;;;;;;;5.68;3.72;;;18.80;99.90;;;;;;5001252;28;20053;-56
2023/08/16 05:06:56;;;;;;;6.00;3.65;;;18.70;99.90;;;;;;4999753;28;20034;-58
2023/08/16 05:09:22;;;;;;;7.03;3.83;;;18.90;99.90;;;;;;4995102;28;20041;-56
2023/08/16 05:11:48;;;;;;;6.50;3.58;;;19.00;99.90;;;;;;5002185;28;20445;-57
2023/08/16 05:14:13;;;;;;;7.85;3.33;;;18.90;99.90;;;;;;5009807;28;20328;-55
2023/08/16 05:16:39;;;;;;;4.50;3.50;;;18.80;99.90;;;;;;5005690;28;20493;-56
2023/08/16 05:19:04;;;;;;;7.78;3.40;;;18.90;99.90;;;;;;5003729;28;20022;-55
2023/08/16 05:21:30;;;;;;;6.95;4.30;;;18.90;99.90;;;;;;5000358;28;20159;-56
2023/08/16 05:23:55;;;;;;;6.53;4.10;;;18.80;99.90;;;;;;5001587;28;20034;-56
2023/08/16 05:26:21;;;;;;;6.68;3.88;;;18.70;99.90;;;;;;4997367;28;20054;-57
2023/08/16 05:28:47;;;;;;;6.47;3.70;;;18.80;99.90;;;;;;5010312;28;20034;-56
2023/08/16 05:31:12;;;;;;;6.85;3.58;;;18.80;99.90;;;;;;5002906;28;20375;-57
2023/08/16 05:33:39;;;;;;;5.72;3.63;;;18.70;99.90;;;;;;5004528;28;20034;-59
2023/08/16 05:36:06;;;;;;;7.05;3.88;;;18.70;99.90;;;;;;5009369;28;20121;-57
2023/08/16 05:38:32;;;;;;;4.03;3.30;;;18.80;99.90;;;;;;5014414;28;20084;-56
2023/08/16 05:40:58;;;;;;;8.00;3.72;;;18.90;99.90;;;;;;5002123;28;20459;-57
2023/08/16 05:43:24;;;;;;;5.25;3.47;;;18.80;99.90;;;;;;4996709;28;20038;-56
2023/08/16 05:45:49;;;;;;;6.75;4.15;;;18.90;99.90;;;;;;5004065;28;20044;-55
2023/08/16 05:48:15;;;;;;;6.30;3.78;;;18.90;99.90;;;;;;5000089;28;20041;-56
2023/08/16 05:50:41;;;;;;;7.53;4.05;;;18.80;99.90;;;;;;5002647;28;20038;-58
2023/08/16 05:53:07;;;;;;;7.82;4.20;;;18.80;99.90;;;;;;4991861;28;20026;-57
2023/08/16 05:55:33;;;;;;;6.97;3.63;;;18.90;99.90;;;;;;4992138;28;20113;-55
2023/08/16 05:57:59;;;;;;;6.07;3.78;;;18.90;99.90;;;;;;5000086;28;20100;-55
2023/08/16 06:00:25;;;;;;;8.48;4.25;;;18.90;99.90;;;;;;5009936;28;20042;-57
2023/08/16 06:02:52;;;;;;;7.38;3.80;;;18.90;99.90;;;;;;4997817;28;20724;-58
2023/08/16 06:05:18;;;;;;;6.13;3.80;;;19.10;99.90;;;;;;5009414;28;20038;-56
2023/08/16 06:07:44;;;;;;;7.55;4.75;;;19.20;99.90;;;;;;5011869;28;20057;-57
2023/08/16 06:10:10;;;;;;;7.00;4.78;;;19.30;99.90;;;;;;5022018;28;20795;-56
2023/08/16 06:12:36;;;;;;;5.93;4.10;;;19.40;99.90;;;;;;5018094;28;20034;-57
2023/08/16 06:15:02;;;;;;;9.52;4.35;;;19.60;99.90;;;;;;4998521;28;20031;-56
2023/08/16 06:17:28;;;;;;;10.82;4.63;;;19.60;99.90;;;;;;5006537;28;20053;-57
2023/08/16 06:19:54;;;;;;;5.55;4.00;;;19.60;99.90;;;;;;4996698;28;20043;-55
2023/08/16 06:22:19;;;;;;;8.50;4.50;;;19.50;99.90;;;;;;5004590;28;20041;-57
2023/08/16 06:24:45;;;;;;;7.65;4.43;;;19.50;99.90;;;;;;5008772;28;20587;-57
2023/08/16 06:27:11;;;;;;;6.80;4.22;;;19.50;99.90;;;;;;5004750;28;20044;-57
2023/08/16 06:29:37;;;;;;;7.28;4.47;;;19.50;99.90;;;;;;5018879;28;20096;-57
2023/08/16 06:32:03;;;;;;;6.63;4.53;;;19.40;99.90;;;;;;5025874;28;20436;-56
2023/08/16 06:34:29;;;;;;;8.45;5.60;;;19.50;99.90;;;;;;5001593;28;20409;-57
2023/08/16 06:36:55;;;;;;;9.38;5.38;;;19.50;99.90;;;;;;5005570;28;20034;-56
2023/08/16 06:39:21;;;;;;;10.60;5.68;;;19.50;99.90;;;;;;5005616;28;20602;-57
2023/08/16 06:41:48;;;;;;;10.30;5.82;;;19.50;99.90;;;;;;5004674;28;20038;-58
2023/08/16 06:44:13;;;;;;;8.23;5.70;;;19.60;99.90;;;;;;5004161;28;20489;-55
2023/08/16 06:46:39;;;;;;;8.85;5.03;;;19.70;99.90;;;;;;5008192;28;20042;-57
2023/08/16 06:49:05;;;;;;;7.55;4.88;;;19.80;99.90;;;;;;5007401;28;20026;-56
2023/08/16 06:51:31;;;;;;;10.15;5.00;;;19.80;99.90;;;;;;5009833;28;20445;-57
2023/08/16 06:53:56;;;;;;;10.07;4.88;;;19.90;99.90;;;;;;5008676;28;20044;-57
2023/08/16 06:56:22;;;;;;;7.82;4.85;;;20.00;99.90;;;;;;5004562;28;20034;-56
2023/08/16 06:58:48;;;;;;;6.97;4.93;;;20.00;99.90;;;;;;5008404;28;20038;-57
2023/08/16 07:01:14;;;;;;;11.88;5.80;;;19.90;99.90;;;;;;5004456;28;20091;-57
2023/08/16 07:03:39;;;;;;;9.85;5.43;;;19.80;99.90;;;;;;5003946;28;20428;-57
2023/08/16 07:06:05;;;;;;;10.73;5.47;;;19.80;99.90;;;;;;5005068;28;20216;-57
2023/08/16 07:08:31;;;;;;;10.77;5.50;;;19.80;99.90;;;;;;5001437;28;20041;-56
2023/08/16 07:10:56;;;;;;;12.30;5.50;;;19.80;99.90;;;;;;5002900;28;20140;-57
2023/08/16 07:13:22;;;;;;;10.38;6.28;;;19.90;99.90;;;;;;5006524;28;20034;-56
2023/08/16 07:15:47;;;;;;;12.07;6.35;;;20.00;99.90;;;;;;5003857;28;20041;-58
2023/08/16 07:18:13;;;;;;;12.75;6.07;;;20.00;99.90;;;;;;5022658;28;20425;-57
2023/08/16 07:20:39;;;;;;;13.48;7.00;;;20.00;99.90;;;;;;5005716;28;20033;-57
2023/08/16 07:23:06;;;;;;;15.15;7.53;;;19.90;99.90;;;;;;5002888;28;20430;-57
2023/08/16 07:25:32;;;;;;;21.10;14.30;;;20.00;99.90;;;;;;5007709;28;20555;-57
2023/08/16 07:27:58;;;;;;;10.88;6.18;;;20.00;99.90;;;;;;5004356;28;20045;-57
2023/08/16 07:30:24;;;;;;;10.90;5.80;;;20.20;99.90;;;;;;5004869;28;20617;-57
2023/08/16 07:32:49;;;;;;;11.60;6.10;;;20.20;99.90;;;;;;5004768;28;20034;-57
2023/08/16 07:35:15;;;;;;;11.05;6.28;;;20.20;99.90;;;;;;5002844;28;20038;-57
2023/08/16 07:37:41;;;;;;;9.15;5.38;;;20.40;99.90;;;;;;5003214;28;20073;-57
2023/08/16 07:40:07;;;;;;;9.75;6.15;;;20.70;99.90;;;;;;5005600;28;20416;-57
2023/08/16 07:42:33;;;;;;;8.85;5.75;;;20.90;99.90;;;;;;5007910;28;20077;-57
2023/08/16 07:44:59;;;;;;;8.18;5.05;;;20.90;99.90;;;;;;5001795;28;20060;-58
2023/08/16 07:47:25;;;;;;;12.88;6.20;;;21.10;99.90;;;;;;5004046;28;20034;-57
2023/08/16 07:49:51;;;;;;;13.05;6.82;;;21.40;99.90;;;;;;5016209;28;20053;-57
2023/08/16 07:52:16;;;;;;;10.88;6.40;;;21.40;99.90;;;;;;5007415;28;20034;-58
2023/08/16 07:54:42;;;;;;;13.80;8.60;;;21.40;99.90;;;;;;5002397;28;20385;-58
2023/08/16 07:57:08;;;;;;;11.38;6.70;;;21.20;99.90;;;;;;4998848;28;20106;-58
2023/08/16 07:59:35;;;;;;;10.98;5.28;;;21.50;99.90;;;;;;5005808;28;20501;-57
2023/08/16 08:02:00;;;;;;;8.35;5.00;;;21.60;99.90;;;;;;5000360;28;20038;-56
2023/08/16 08:04:26;;;;;;;7.35;4.28;;;21.40;99.90;;;;;;5002624;28;20041;-57
2023/08/16 08:06:51;;;;;;;6.75;4.00;;;21.30;99.90;;;;;;5007096;28;20407;-57
2023/08/16 08:09:17;;;;;;;9.40;4.20;;;21.20;99.90;;;;;;5012635;28;20036;-57
2023/08/16 08:11:43;;;;;;;6.80;3.63;;;21.70;99.90;;;;;;5012442;28;20033;-56
2023/08/16 08:14:08;;;;;;;6.13;3.47;;;21.50;99.90;;;;;;5013764;28;20076;-57
2023/08/16 08:16:34;;;;;;;7.78;3.42;;;21.60;99.90;;;;;;5005985;28;20038;-57
2023/08/16 08:18:59;;;;;;;5.95;3.67;;;21.50;99.90;;;;;;5006885;28;20367;-57
2023/08/16 08:21:25;;;;;;;8.45;3.95;;;21.40;99.90;;;;;;5005119;28;20030;-56
2023/08/16 08:23:51;;;;;;;9.43;3.60;;;21.60;99.90;;;;;;5006282;28;20445;-56
2023/08/16 08:26:16;;;;;;;7.82;3.28;;;21.50;99.90;;;;;;5003916;28;20139;-58
2023/08/16 08:28:43;;;;;;;7.07;3.40;;;21.70;99.90;;;;;;5005706;28;20030;-58
2023/08/16 08:31:08;;;;;;;5.75;3.13;;;21.80;99.90;;;;;;5004755;28;20030;-57
2023/08/16 08:33:34;;;;;;;7.22;3.30;;;21.80;99.90;;;;;;5006076;28;20472;-58
2023/08/16 08:36:00;;;;;;;5.00;2.78;;;21.70;99.90;;;;;;5006642;28;20041;-57
2023/08/16 08:38:26;;;;;;;5.68;3.20;;;21.60;99.90;;;;;;4995748;28;20153;-57
2023/08/16 08:40:58;;;;;;;7.90;2.97;;;21.60;99.90;;;;;;5005731;28;20402;-58
2023/08/16 08:43:31;;;;;;;4.78;2.70;;;21.70;99.90;;;;;;5005132;28;20029;-58
2023/08/16 08:45:58;;;;;;;7.03;3.35;;;21.70;99.90;;;;;;5009115;28;20432;-57
2023/08/16 08:48:27;;;;;;;6.22;3.20;;;21.60;99.90;;;;;;5004131;28;20046;-57
2023/08/16 08:50:54;;;;;;;5.72;2.78;;;21.70;99.90;;;;;;5005519;28;20037;-57
2023/08/16 08:53:24;;;;;;;6.88;3.15;;;21.70;99.90;;;;;;5004259;28;20030;-57
2023/08/16 08:55:55;;;;;;;5.93;3.10;;;21.70;99.90;;;;;;5015271;28;20040;-56
2023/08/16 08:58:22;;;;;;;8.25;3.05;;;22.00;99.90;;;;;;5005160;28;20034;-56
2023/08/16 09:00:53;;;;;;;7.15;3.08;;;22.10;99.90;;;;;;5003750;28;20046;-57
2023/08/16 09:03:21;;;;;;;4.68;2.60;;;22.10;99.90;;;;;;5002551;28;20042;-56
2023/08/16 09:05:56;;;;;;;6.53;2.97;;;22.20;99.90;;;;;;5004330;28;20033;-56
2023/08/16 09:08:22;;;;;;;6.60;2.55;;;22.10;99.90;;;;;;5006643;28;20044;-57
2023/08/16 09:10:51;;;;;;;5.85;2.63;;;21.90;99.90;;;;;;5006374;28;20490;-56
2023/08/16 09:13:18;;;;;;;8.88;2.78;;;21.90;99.90;;;;;;5007490;28;20127;-57
2023/08/16 09:15:43;;;;;;;14.55;8.88;;;21.90;99.90;;;;;;5016612;28;20041;-57
2023/08/16 09:18:12;;;;;;;5.97;2.60;;;22.10;99.90;;;;;;5016569;28;20037;-57
2023/08/16 09:20:39;;;;;;;7.05;2.42;;;22.20;99.90;;;;;;5014791;28;20034;-57
2023/08/16 09:23:05;;;;;;;5.28;2.50;;;22.20;99.90;;;;;;5001059;28;20729;-57
2023/08/16 09:25:31;;;;;;;3.83;2.58;;;22.40;99.90;;;;;;5003230;28;20080;-56
2023/08/16 09:27:57;;;;;;;7.40;2.50;;;22.30;99.90;;;;;;5002236;28;20121;-57
2023/08/16 09:30:26;;;;;;;4.97;2.60;;;22.30;99.90;;;;;;5000354;28;20149;-59
2023/08/16 09:32:53;;;;;;;4.72;2.30;;;22.20;99.90;;;;;;5005440;28;20037;-58
2023/08/16 09:35:26;;;;;;;6.38;2.63;;;22.20;99.90;;;;;;5023327;28;20413;-59
2023/08/16 09:37:59;;;;;;;9.63;2.78;;;22.30;99.90;;;;;;5019442;28;20037;-58
2023/08/16 09:40:25;;;;;;;4.43;2.58;;;22.30;99.90;;;;;;5015887;28;20038;-57
2023/08/16 09:42:51;;;;;;;4.43;2.10;;;22.30;99.90;;;;;;5017027;28;20041;-57
2023/08/16 09:45:34;;;;;;;3.92;2.35;;;22.50;99.90;;;;;;5005036;28;20038;-57
2023/08/16 09:48:01;;;;;;;4.95;2.65;;;22.40;99.90;;;;;;5001124;28;20520;-57
2023/08/16 09:50:28;;;;;;;5.13;2.40;;;22.30;99.90;;;;;;5011627;28;20547;-57
2023/08/16 09:52:54;;;;;;;5.80;2.10;;;22.30;99.90;;;;;;5005725;28;20390;-57
2023/08/16 09:55:31;;;;;;;5.65;2.20;;;22.20;99.90;;;;;;5003028;28;20034;-57
2023/08/16 09:58:00;;;;;;;4.30;2.28;;;22.20;99.90;;;;;;5004222;28;20037;-56
2023/08/16 10:00:27;;;;;;;5.57;2.13;;;22.00;99.90;;;;;;5015887;28;20088;-58
2023/08/16 10:02:54;;;;;;;5.18;2.13;;;22.10;99.90;;;;;;5003627;28;20288;-57
2023/08/16 10:05:20;;;;;;;4.38;2.15;;;22.00;99.90;;;;;;5003799;28;20038;-57
2023/08/16 10:07:49;;;;;;;6.53;2.47;;;22.00;99.90;;;;;;5004477;28;20125;-57
2023/08/16 10:10:17;;;;;;;4.30;1.88;;;21.80;99.90;;;;;;5003036;28;20045;-58
2023/08/16 10:12:45;;;;;;;4.03;2.30;;;21.90;99.90;;;;;;5004323;28;20096;-57
2023/08/16 10:15:10;;;;;;;6.70;2.97;;;22.00;99.90;;;;;;4995888;28;20041;-57
2023/08/16 10:17:40;;;;;;;5.60;2.22;;;22.00;99.90;;;;;;5001214;28;20068;-58
2023/08/16 10:20:25;;;;;;;6.03;2.15;;;21.90;99.90;;;;;;4997393;28;20080;-58
2023/08/16 10:23:02;;;;;;;4.40;2.10;;;21.80;99.90;;;;;;5002293;28;20694;-56
2023/08/16 10:25:36;;;;;;;9.10;2.45;;;21.60;99.90;;;;;;5023973;28;20441;-55
2023/08/16 10:28:03;;;;;;;4.00;2.17;;;21.20;99.90;;;;;;5021599;28;20037;-58
2023/08/16 10:30:30;;;;;;;5.72;2.33;;;22.20;99.90;;;;;;5020896;28;20037;-56
2023/08/16 10:33:09;;;;;;;3.97;2.15;;;22.20;99.90;;;;;;5021042;28;20029;-57
2023/08/16 10:35:35;;;;;;;5.60;2.28;;;22.20;99.90;;;;;;4999732;28;20115;-57
2023/08/16 10:38:01;;;;;;;5.57;2.78;;;22.00;99.90;;;;;;5002102;28;20038;-57
2023/08/16 10:40:27;;;;;;;5.25;2.78;;;21.90;99.90;;;;;;5001509;28;20085;-57
2023/08/16 10:43:19;;;;;;;6.13;2.70;;;22.00;99.90;;;;;;5002213;28;20034;-58
2023/08/16 10:45:47;;;;;;;4.53;2.80;;;22.10;99.90;;;;;;5017010;28;20489;-58
2023/08/16 10:48:20;;;;;;;7.28;2.63;;;22.20;99.90;;;;;;5010370;28;20041;-57
2023/08/16 10:50:56;;;;;;;4.50;2.88;;;22.20;99.90;;;;;;5002723;28;20670;-58
2023/08/16 10:53:25;;;;;;;5.25;2.83;;;22.20;99.90;;;;;;5000752;28;20030;-56
2023/08/16 10:55:55;;;;;;;8.57;3.75;;;22.30;99.90;;;;;;5001137;28;20037;-58
2023/08/16 10:58:25;;;;;;;8.10;3.55;;;22.30;99.90;;;;;;5001082;28;20364;-58
2023/08/16 11:00:58;;;;;;;9.68;4.97;;;22.30;99.90;;;;;;5000603;28;20112;-59
2023/08/16 11:03:34;;;;;;;6.63;3.75;;;22.10;99.90;;;;;;5001760;28;20034;-58
2023/08/16 11:06:05;;;;;;;8.77;5.60;;;22.10;99.90;;;;;;5001275;28;20442;-57
2023/08/16 11:08:31;;;;;;;7.93;4.95;;;22.10;99.90;;;;;;5001300;28;20038;-57
2023/08/16 11:10:58;;;;;;;8.90;5.13;;;22.20;99.90;;;;;;5000944;28;20022;-57
2023/08/16 11:13:24;;;;;;;9.07;5.55;;;22.30;99.90;;;;;;5000656;28;20117;-58
2023/08/16 11:15:49;;;;;;;7.13;5.30;;;22.30;99.90;;;;;;5003589;28;20532;-57
2023/08/16 11:18:28;;;;;;;10.80;5.25;;;22.20;99.90;;;;;;5004461;28;20037;-57
2023/08/16 11:20:54;;;;;;;6.45;5.47;;;22.10;99.90;;;;;;5006902;28;20589;-56
2023/08/16 11:23:21;;;;;;;8.65;6.88;;;22.20;99.90;;;;;;5005844;28;20057;-60
2023/08/16 11:25:46;;;;;;;14.07;8.18;;;22.10;99.90;;;;;;5004055;28;20026;-57
2023/08/16 11:28:17;;;;;;;9.85;7.45;;;22.10;99.90;;;;;;5003142;28;20033;-56
2023/08/16 11:30:43;;;;;;;9.68;7.30;;;22.10;99.90;;;;;;5002516;28;20508;-57
2023/08/16 11:33:15;;;;;;;9.25;6.40;;;22.00;99.90;;;;;;5001608;28;20026;-56
2023/08/16 11:35:41;;;;;;;9.88;6.60;;;22.10;99.90;;;;;;5000264;28;20104;-58
2023/08/16 11:38:07;;;;;;;10.20;6.40;;;22.20;99.90;;;;;;5004500;28;20041;-57
2023/08/16 11:40:32;;;;;;;9.15;6.05;;;22.40;99.90;;;;;;5005470;28;20052;-57
2023/08/16 11:43:04;;;;;;;9.55;6.65;;;22.30;99.90;;;;;;5009142;28;21023;-57
2023/08/16 11:45:30;;;;;;;8.60;6.10;;;22.40;99.90;;;;;;5022852;28;20074;-58
2023/08/16 11:47:55;;;;;;;7.70;5.38;;;22.50;99.90;;;;;;5019369;28;20037;-57
2023/08/16 11:50:24;;;;;;;8.15;6.05;;;22.50;99.90;;;;;;5019416;28;20045;-57
2023/08/16 11:53:03;;;;;;;10.20;6.75;;;22.50;99.90;;;;;;5022601;28;20805;-57
2023/08/16 11:55:29;;;;;;;16.70;7.47;;;22.30;99.90;;;;;;5020223;28;20034;-57
2023/08/16 11:58:08;;;;;;;12.93;8.95;;;22.40;99.90;;;;;;5017702;28;20033;-57
2023/08/16 12:00:35;;;;;;;14.35;8.40;;;22.50;99.90;;;;;;5015148;28;20045;-57
2023/08/16 12:03:06;;;;;;;14.43;7.60;;;22.50;99.90;;;;;;5021706;28;20550;-57
2023/08/16 12:05:36;;;;;;;11.77;7.90;;;22.50;99.90;;;;;;5024193;28;20068;-58
2023/08/16 12:08:06;;;;;;;11.85;7.70;;;22.50;99.90;;;;;;5019510;28;20045;-57
2023/08/16 12:10:32;;;;;;;14.38;9.95;;;22.30;99.90;;;;;;5020448;28;20037;-58
2023/08/16 12:12:59;;;;;;;17.60;10.10;;;22.40;99.90;;;;;;5012312;28;20042;-56
2023/08/16 12:15:27;;;;;;;11.68;8.10;;;22.40;99.90;;;;;;4997962;28;20038;-56
2023/08/16 12:17:55;;;;;;;16.85;9.18;;;22.60;99.90;;;;;;5000855;28;20450;-57
2023/08/16 12:20:24;;;;;;;16.85;10.55;;;22.40;99.90;;;;;;5003233;28;20096;-57
2023/08/16 12:22:51;;;;;;;18.80;11.43;;;22.70;99.90;;;;;;5001366;28;20029;-57
2023/08/16 12:25:16;;;;;;;21.15;13.85;;;22.90;99.90;;;;;;5005230;28;20045;-56
2023/08/16 12:27:42;;;;;;;26.88;15.00;;;22.90;99.90;;;;;;5011653;28;20405;-58
2023/08/16 12:30:08;;;;;;;18.52;12.98;;;22.80;99.90;;;;;;5009977;28;20095;-58
2023/08/16 12:32:34;;;;;;;28.65;17.17;;;22.80;99.90;;;;;;5008418;28;20087;-57
2023/08/16 12:34:59;;;;;;;22.05;15.23;;;22.80;99.90;;;;;;5009330;28;20485;-57
2023/08/16 12:37:25;;;;;;;21.42;13.90;;;22.90;99.90;;;;;;5007325;28;20390;-57
2023/08/16 12:39:50;;;;;;;18.73;14.15;;;22.80;99.90;;;;;;5009142;28;20064;-57
2023/08/16 12:42:16;;;;;;;19.17;13.20;;;22.80;99.90;;;;;;4999023;28;20065;-58